createdAt,value
2023-02-07T00:02:21.101Z,88.75
2023-02-07T00:04:51.823Z,88.93
2023-02-07T00:07:22.807Z,89.03
2023-02-07T00:09:53.280Z,88.93
2023-02-07T00:12:25.302Z,88.82
2023-02-07T00:14:56.161Z,88.64
2023-02-07T00:17:27.076Z,88.21
2023-02-07T00:19:57.590Z,87.84
2023-02-07T00:22:28.336Z,88.02
2023-02-07T00:24:59.517Z,88.08
2023-02-07T00:27:30.385Z,88.22
2023-02-07T00:30:01.256Z,88.36
2023-02-07T00:32:35.659Z,88.50
2023-02-07T00:35:07.038Z,88.54
2023-02-07T00:37:37.557Z,88.59
2023-02-07T00:40:08.922Z,88.49
2023-02-07T00:42:39.458Z,88.40
2023-02-07T00:45:10.765Z,88.37
2023-02-07T00:47:41.373Z,88.15
2023-02-07T00:50:11.994Z,88.07
2023-02-07T00:52:42.520Z,88.22
2023-02-07T00:55:13.135Z,88.34
2023-02-07T00:57:44.356Z,88.18
2023-02-07T01:00:15.451Z,88.12
2023-02-07T01:02:47.036Z,88.14
2023-02-07T01:05:19.261Z,88.29
2023-02-07T01:07:50.825Z,88.36
2023-02-07T01:10:24.174Z,88.17
2023-02-07T01:12:54.966Z,88.14
2023-02-07T01:15:25.644Z,88.01
2023-02-07T01:17:57.958Z,88.02
2023-02-07T01:20:30.179Z,87.98
2023-02-07T01:23:00.659Z,88.13
2023-02-07T01:25:31.661Z,88.29
2023-02-07T01:28:02.204Z,88.50
2023-02-07T01:30:33.256Z,88.74
2023-02-07T01:33:04.001Z,88.61
2023-02-07T01:35:38.861Z,88.56
2023-02-07T01:38:11.172Z,88.54
2023-02-07T01:40:43.502Z,88.48
2023-02-07T01:43:17.041Z,88.49
2023-02-07T01:45:47.724Z,88.60
2023-02-07T01:48:30.373Z,88.60
2023-02-07T01:51:04.213Z,88.63
2023-02-07T01:53:37.232Z,88.63
2023-02-07T01:56:12.008Z,88.58
2023-02-07T01:58:42.320Z,88.55
2023-02-07T02:01:16.089Z,88.62
2023-02-07T02:03:48.753Z,88.59
2023-02-07T02:06:22.922Z,88.57
2023-02-07T02:09:00.783Z,88.51
2023-02-07T02:11:34.559Z,88.54
2023-02-07T02:14:36.869Z,88.43
2023-02-07T02:17:16.365Z,88.54
2023-02-07T02:20:10.208Z,88.56
2023-02-07T02:23:17.633Z,88.63
2023-02-07T02:25:57.761Z,88.67
2023-02-07T02:28:52.797Z,88.74
2023-02-07T02:31:44.775Z,89.04
2023-02-07T02:34:30.421Z,88.55
2023-02-07T02:37:23.683Z,88.49
2023-02-07T02:40:12.824Z,88.68
2023-02-07T02:42:49.226Z,88.78
2023-02-07T02:45:25.343Z,88.94
2023-02-07T02:47:57.054Z,89.04
2023-02-07T02:50:32.203Z,89.05
2023-02-07T02:53:04.096Z,88.99
2023-02-07T02:55:57.201Z,88.81
2023-02-07T02:58:30.893Z,88.76
2023-02-07T03:01:07.669Z,88.76
2023-02-07T03:04:01.357Z,88.78
2023-02-07T03:06:56.197Z,88.80
2023-02-07T03:09:46.482Z,88.86
2023-02-07T03:12:28.852Z,88.78
2023-02-07T03:15:19.190Z,88.08
2023-02-07T03:18:13.766Z,87.74
2023-02-07T03:20:47.368Z,87.74
2023-02-07T03:23:20.974Z,88.10
2023-02-07T03:25:53.681Z,88.22
2023-02-07T03:28:26.677Z,88.34
2023-02-07T03:31:00.119Z,88.11
2023-02-07T03:33:32.440Z,87.80
2023-02-07T03:36:17.811Z,87.94
2023-02-07T03:38:48.695Z,88.25
2023-02-07T03:41:25.001Z,88.45
2023-02-07T03:43:58.139Z,88.44
2023-02-07T03:46:31.833Z,88.23
2023-02-07T03:49:02.930Z,87.54
2023-02-07T03:51:33.353Z,87.16
2023-02-07T03:54:05.516Z,86.92
2023-02-07T03:56:38.178Z,86.76
2023-02-07T03:59:10.169Z,86.67
2023-02-07T04:01:42.632Z,86.49
2023-02-07T04:04:13.624Z,86.71
2023-02-07T04:06:45.804Z,86.73
2023-02-07T04:09:17.223Z,86.70
2023-02-07T04:11:52.743Z,86.82
2023-02-07T04:14:23.415Z,86.76
2023-02-07T04:16:54.108Z,86.63
2023-02-07T04:19:24.904Z,86.63
2023-02-07T04:21:55.388Z,86.80
2023-02-07T04:24:26.251Z,86.81
2023-02-07T04:26:56.639Z,86.72
2023-02-07T04:29:27.336Z,86.63
2023-02-07T04:31:59.091Z,86.88
2023-02-07T04:34:29.596Z,87.00
2023-02-07T04:37:00.772Z,87.20
2023-02-07T04:39:31.126Z,87.57
2023-02-07T04:42:01.596Z,87.92
2023-02-07T04:44:32.228Z,87.63
2023-02-07T04:47:02.675Z,87.35
2023-02-07T04:49:34.600Z,87.61
2023-02-07T04:52:07.050Z,87.83
2023-02-07T04:54:37.645Z,87.98
2023-02-07T04:57:08.020Z,88.29
2023-02-07T04:59:38.908Z,88.34
2023-02-07T05:02:09.556Z,88.50
2023-02-07T05:04:40.151Z,88.50
2023-02-07T05:07:14.774Z,88.41
2023-02-07T05:09:43.052Z,87.61
2023-02-07T05:12:14.359Z,87.11
2023-02-07T05:14:47.556Z,86.90
2023-02-07T05:17:18.042Z,86.70
2023-02-07T05:19:49.944Z,86.49
2023-02-07T05:22:20.336Z,86.43
2023-02-07T05:24:50.939Z,86.50
2023-02-07T05:27:21.595Z,86.43
2023-02-07T05:29:53.221Z,86.23
2023-02-07T05:32:42.252Z,86.43
2023-02-07T05:35:14.197Z,86.70
2023-02-07T05:37:48.498Z,86.49
2023-02-07T05:40:19.326Z,86.44
2023-02-07T05:42:51.485Z,86.70
2023-02-07T05:45:23.106Z,87.02
2023-02-07T05:47:53.620Z,87.33
2023-02-07T05:50:24.614Z,87.66
2023-02-07T05:52:55.168Z,87.82
2023-02-07T05:55:25.813Z,87.96
2023-02-07T05:57:57.022Z,88.11
2023-02-07T06:00:27.599Z,88.29
2023-02-07T06:02:58.137Z,88.43
2023-02-07T06:05:30.419Z,88.40
2023-02-07T06:08:00.977Z,88.46
2023-02-07T06:10:43.446Z,88.43
2023-02-07T06:13:14.121Z,88.33
2023-02-07T06:15:46.286Z,88.35
2023-02-07T06:18:16.885Z,88.43
2023-02-07T06:20:50.115Z,88.32
2023-02-07T06:23:23.014Z,88.12
2023-02-07T06:25:53.605Z,87.52
2023-02-07T06:28:25.126Z,87.12
2023-02-07T06:30:56.045Z,86.83
2023-02-07T06:33:26.561Z,86.99
2023-02-07T06:35:58.711Z,86.86
2023-02-07T06:38:29.480Z,86.50
2023-02-07T06:41:01.962Z,86.49
2023-02-07T06:43:33.936Z,86.82
2023-02-07T06:46:04.700Z,87.21
2023-02-07T06:48:37.095Z,87.00
2023-02-07T06:51:08.136Z,86.79
2023-02-07T06:53:38.779Z,86.50
2023-02-07T06:56:09.372Z,86.48
2023-02-07T06:58:41.635Z,86.73
2023-02-07T07:01:16.389Z,86.85
2023-02-07T07:03:49.852Z,86.70
2023-02-07T07:06:20.368Z,86.48
2023-02-07T07:08:51.810Z,86.69
2023-02-07T07:11:22.702Z,87.00
2023-02-07T07:13:53.356Z,87.05
2023-02-07T07:16:31.417Z,87.32
2023-02-07T07:19:02.382Z,86.95
2023-02-07T07:21:33.510Z,86.66
2023-02-07T07:24:05.367Z,86.47
2023-02-07T07:26:48.380Z,86.48
2023-02-07T07:29:08.314Z,86.88
2023-02-07T07:31:38.881Z,87.09
2023-02-07T07:34:11.401Z,87.16
2023-02-07T07:36:42.116Z,87.10
2023-02-07T07:39:13.286Z,87.12
2023-02-07T07:41:44.290Z,86.95
2023-02-07T07:44:16.240Z,86.25
2023-02-07T07:46:48.552Z,86.00
2023-02-07T07:49:20.816Z,85.65
2023-02-07T07:51:51.375Z,85.64
2023-02-07T07:54:23.440Z,84.21
2023-02-07T07:56:54.081Z,83.63
2023-02-07T07:59:26.180Z,83.20
2023-02-07T08:01:56.673Z,82.59
2023-02-07T08:04:27.269Z,82.23
2023-02-07T08:06:57.799Z,81.24
2023-02-07T08:09:31.354Z,81.09
2023-02-07T08:12:01.877Z,81.29
2023-02-07T08:14:32.397Z,81.24
2023-02-07T08:17:03.044Z,81.68
2023-02-07T08:19:33.717Z,81.57
2023-02-07T08:22:06.326Z,80.51
2023-02-07T08:24:36.899Z,80.30
2023-02-07T08:27:07.551Z,80.03
2023-02-07T08:29:56.658Z,80.58
2023-02-07T08:32:27.215Z,79.71
2023-02-07T08:34:57.746Z,79.34
2023-02-07T08:37:29.767Z,79.13
2023-02-07T08:40:00.477Z,78.71
2023-02-07T08:42:30.891Z,78.59
2023-02-07T08:45:01.476Z,78.33
2023-02-07T08:47:32.498Z,78.51
2023-02-07T08:50:04.740Z,79.09
2023-02-07T08:52:36.899Z,78.94
2023-02-07T08:55:12.135Z,78.78
2023-02-07T08:57:42.718Z,78.47
2023-02-07T09:00:15.461Z,77.36
2023-02-07T09:02:50.653Z,74.67
2023-02-07T09:05:22.885Z,74.26
2023-02-07T09:07:53.354Z,73.95
2023-02-07T09:10:23.851Z,73.99
2023-02-07T09:12:54.740Z,73.77
2023-02-07T09:15:26.166Z,73.87
2023-02-07T09:17:57.452Z,74.31
2023-02-07T09:20:29.478Z,73.64
2023-02-07T09:23:19.417Z,71.89
2023-02-07T09:25:53.200Z,71.23
2023-02-07T09:28:23.744Z,70.79
2023-02-07T09:30:54.959Z,70.73
2023-02-07T09:33:25.834Z,69.62
2023-02-07T09:35:56.356Z,69.60
2023-02-07T09:38:26.899Z,69.77
2023-02-07T09:40:59.359Z,69.08
2023-02-07T09:43:52.846Z,68.73
2023-02-07T09:46:26.663Z,67.82
2023-02-07T09:49:09.606Z,66.98
2023-02-07T09:51:41.675Z,66.80
2023-02-07T09:54:21.370Z,66.81
2023-02-07T09:56:55.146Z,66.64
2023-02-07T09:59:48.487Z,66.55
2023-02-07T10:02:37.207Z,67.97
2023-02-07T10:05:14.724Z,69.01
2023-02-07T10:07:50.072Z,70.01
2023-02-07T10:10:23.523Z,70.02
2023-02-07T10:12:56.964Z,69.72
2023-02-07T10:15:42.996Z,69.52
2023-02-07T10:18:19.306Z,69.09
2023-02-07T10:21:02.676Z,67.80
2023-02-07T10:23:44.112Z,67.49
2023-02-07T10:26:20.383Z,67.32
2023-02-07T10:29:04.141Z,67.96
2023-02-07T10:31:39.324Z,68.26
2023-02-07T10:34:18.490Z,68.68
2023-02-07T10:36:52.514Z,68.07
2023-02-07T10:39:34.784Z,67.26
2023-02-07T10:42:07.982Z,66.62
2023-02-07T10:44:43.829Z,66.12
2023-02-07T10:47:19.128Z,65.78
2023-02-07T10:49:52.346Z,65.99
2023-02-07T10:52:36.188Z,66.17
2023-02-07T10:55:10.285Z,66.86
2023-02-07T10:57:45.908Z,66.51
2023-02-07T11:00:19.919Z,65.88
2023-02-07T11:03:14.737Z,65.73
2023-02-07T11:06:09.911Z,64.68
2023-02-07T11:08:45.142Z,64.28
2023-02-07T11:11:28.170Z,62.35
2023-02-07T11:14:04.506Z,62.44
2023-02-07T11:16:35.742Z,62.29
2023-02-07T11:19:08.274Z,62.17
2023-02-07T11:21:49.942Z,60.74
2023-02-07T11:24:25.260Z,61.42
2023-02-07T11:27:02.669Z,61.61
2023-02-07T11:29:39.211Z,61.48
2023-02-07T11:32:11.539Z,60.49
2023-02-07T11:34:46.082Z,60.44
2023-02-07T11:37:27.378Z,61.87
2023-02-07T11:40:17.697Z,60.66
2023-02-07T11:42:57.109Z,62.11
2023-02-07T11:45:30.374Z,61.85
2023-02-07T11:48:04.146Z,61.93
2023-02-07T11:50:39.707Z,62.67
2023-02-07T11:53:27.280Z,61.90
2023-02-07T11:55:58.493Z,61.75
2023-02-07T11:58:38.378Z,61.30
2023-02-07T12:01:09.708Z,61.79
2023-02-07T12:03:57.012Z,62.08
2023-02-07T12:06:31.077Z,62.33
2023-02-07T12:09:04.033Z,62.97
2023-02-07T12:11:37.696Z,63.07
2023-02-07T12:14:27.453Z,63.64
2023-02-07T12:17:01.194Z,62.91
2023-02-07T12:19:34.777Z,63.49
2023-02-07T12:22:23.684Z,62.81
2023-02-07T12:25:06.143Z,61.90
2023-02-07T12:27:39.653Z,58.64
2023-02-07T12:30:22.021Z,57.29
2023-02-07T12:33:00.382Z,57.94
2023-02-07T12:36:07.808Z,58.39
2023-02-07T12:39:16.858Z,59.31
2023-02-07T12:41:56.396Z,60.50
2023-02-07T12:44:37.816Z,61.03
2023-02-07T12:47:11.723Z,60.33
2023-02-07T12:49:57.440Z,61.42
2023-02-07T12:52:34.313Z,61.48
2023-02-07T12:55:29.117Z,60.98
2023-02-07T12:58:20.575Z,60.14
2023-02-07T13:01:03.400Z,60.74
2023-02-07T13:03:52.249Z,59.85
2023-02-07T13:06:40.809Z,59.10
2023-02-07T13:09:16.050Z,60.17
2023-02-07T13:12:10.925Z,60.47
2023-02-07T13:15:07.506Z,60.25
2023-02-07T13:17:57.312Z,60.56
2023-02-07T13:20:43.219Z,62.60
2023-02-07T13:23:22.467Z,61.98
2023-02-07T13:25:57.428Z,62.33
2023-02-07T13:28:33.991Z,61.88
2023-02-07T13:31:09.045Z,61.65
2023-02-07T13:33:44.020Z,61.72
2023-02-07T13:36:29.385Z,62.71
2023-02-07T13:39:02.991Z,63.44
2023-02-07T13:41:39.319Z,63.00
2023-02-07T13:44:17.362Z,63.26
2023-02-07T13:47:12.720Z,62.99
2023-02-07T13:49:51.943Z,62.91
2023-02-07T13:52:26.502Z,63.20
2023-02-07T13:55:16.266Z,63.83
2023-02-07T13:58:06.229Z,63.56
2023-02-07T14:00:44.572Z,63.39
2023-02-07T14:03:33.134Z,63.20
2023-02-07T14:06:25.839Z,63.60
2023-02-07T14:09:02.270Z,63.85
2023-02-07T14:11:44.988Z,63.76
2023-02-07T14:14:30.334Z,63.64
2023-02-07T14:17:09.193Z,63.97
2023-02-07T14:19:45.731Z,63.42
2023-02-07T14:22:23.166Z,63.52
2023-02-07T14:25:06.304Z,63.49
2023-02-07T14:27:44.821Z,63.26
2023-02-07T14:30:21.249Z,63.87
2023-02-07T14:33:07.908Z,63.20
2023-02-07T14:35:41.364Z,64.09
2023-02-07T14:38:23.984Z,63.16
2023-02-07T14:41:09.678Z,63.83
2023-02-07T14:43:36.075Z,63.77
2023-02-07T14:46:18.306Z,64.01
2023-02-07T14:48:57.018Z,63.43
2023-02-07T14:51:47.999Z,64.07
2023-02-07T14:54:42.152Z,63.33
2023-02-07T14:57:33.737Z,63.67
2023-02-07T15:00:10.636Z,63.95
2023-02-07T15:02:54.986Z,64.02
2023-02-07T15:05:35.230Z,64.82
2023-02-07T15:08:11.477Z,64.00
2023-02-07T15:11:01.196Z,64.24
2023-02-07T15:13:36.041Z,64.58
2023-02-07T15:16:10.021Z,64.68
2023-02-07T15:18:58.693Z,64.17
2023-02-07T15:21:37.772Z,64.73
2023-02-07T15:24:11.421Z,64.26
2023-02-07T15:26:42.298Z,65.14
2023-02-07T15:29:22.383Z,65.47
2023-02-07T15:31:55.754Z,66.16
2023-02-07T15:34:30.968Z,65.54
2023-02-07T15:37:03.891Z,65.19
2023-02-07T15:39:34.426Z,65.27
2023-02-07T15:42:06.643Z,65.84
2023-02-07T15:44:49.198Z,66.19
2023-02-07T15:47:36.792Z,66.28
2023-02-07T15:50:10.408Z,66.50
2023-02-07T15:52:49.479Z,65.95
2023-02-07T15:55:38.497Z,66.45
2023-02-07T15:58:10.851Z,66.79
2023-02-07T16:00:43.767Z,66.77
2023-02-07T16:03:20.303Z,66.93
2023-02-07T16:05:52.651Z,67.49
2023-02-07T16:08:32.158Z,67.71
2023-02-07T16:11:18.117Z,67.80
2023-02-07T16:13:55.819Z,68.17
2023-02-07T16:16:32.479Z,68.87
2023-02-07T16:19:09.351Z,68.93
2023-02-07T16:21:40.661Z,68.79
2023-02-07T16:24:14.237Z,68.99
2023-02-07T16:26:45.585Z,69.06
2023-02-07T16:29:22.486Z,69.73
2023-02-07T16:31:54.347Z,69.92
2023-02-07T16:34:28.962Z,69.80
2023-02-07T16:37:00.319Z,69.58
2023-02-07T16:39:30.831Z,69.42
2023-02-07T16:42:12.238Z,69.47
2023-02-07T16:44:43.297Z,69.80
2023-02-07T16:47:19.378Z,69.13
2023-02-07T16:49:49.994Z,69.50
2023-02-07T16:52:24.258Z,69.92
2023-02-07T16:54:55.569Z,69.87
2023-02-07T16:57:26.139Z,69.86
2023-02-07T16:59:56.928Z,69.76
2023-02-07T17:02:27.564Z,69.94
2023-02-07T17:04:58.024Z,70.40
2023-02-07T17:07:28.896Z,70.54
2023-02-07T17:10:00.291Z,70.76
2023-02-07T17:12:30.882Z,71.13
2023-02-07T17:15:04.102Z,71.18
2023-02-07T17:17:34.987Z,71.18
2023-02-07T17:20:08.383Z,71.12
2023-02-07T17:22:38.932Z,71.30
2023-02-07T17:25:09.786Z,70.82
2023-02-07T17:27:41.550Z,70.79
2023-02-07T17:30:32.361Z,70.82
2023-02-07T17:33:03.905Z,70.67
2023-02-07T17:35:35.705Z,71.50
2023-02-07T17:38:07.010Z,71.59
2023-02-07T17:40:40.157Z,71.76
2023-02-07T17:43:12.322Z,71.45
2023-02-07T17:45:42.816Z,71.72
2023-02-07T17:48:14.840Z,73.03
2023-02-07T17:50:45.815Z,72.34
2023-02-07T17:53:20.451Z,73.22
2023-02-07T17:55:53.721Z,72.50
2023-02-07T17:58:24.333Z,72.98
2023-02-07T18:00:57.483Z,71.98
2023-02-07T18:03:28.095Z,71.50
2023-02-07T18:06:01.264Z,71.17
2023-02-07T18:08:37.020Z,72.27
2023-02-07T18:11:08.704Z,72.88
2023-02-07T18:13:40.056Z,73.29
2023-02-07T18:16:16.710Z,73.29
2023-02-07T18:18:47.408Z,73.68
2023-02-07T18:21:19.445Z,73.13
2023-02-07T18:23:52.768Z,74.09
2023-02-07T18:26:24.125Z,74.49
2023-02-07T18:28:54.785Z,74.76
2023-02-07T18:31:26.149Z,74.38
2023-02-07T18:33:56.850Z,74.36
2023-02-07T18:36:29.157Z,74.19
2023-02-07T18:39:00.228Z,74.38
2023-02-07T18:41:30.876Z,74.89
2023-02-07T18:44:04.282Z,75.35
2023-02-07T18:46:36.017Z,75.69
2023-02-07T18:49:10.920Z,75.78
2023-02-07T18:51:42.260Z,76.39
2023-02-07T18:54:17.688Z,76.76
2023-02-07T18:56:49.881Z,77.06
2023-02-07T18:59:26.788Z,77.39
2023-02-07T19:01:58.955Z,77.86
2023-02-07T19:04:35.650Z,78.35
2023-02-07T19:07:07.888Z,78.21
2023-02-07T19:09:41.292Z,77.63
2023-02-07T19:12:11.792Z,76.65
2023-02-07T19:14:45.191Z,77.02
2023-02-07T19:17:16.361Z,77.42
2023-02-07T19:19:47.291Z,78.02
2023-02-07T19:22:26.727Z,76.37
2023-02-07T19:24:50.207Z,76.02
2023-02-07T19:27:23.014Z,76.78
2023-02-07T19:29:53.577Z,77.34
2023-02-07T19:32:26.982Z,77.07
2023-02-07T19:34:59.141Z,75.85
2023-02-07T19:37:31.163Z,76.84
2023-02-07T19:40:03.155Z,77.30
2023-02-07T19:42:33.801Z,76.22
2023-02-07T19:45:06.739Z,75.76
2023-02-07T19:47:37.405Z,75.16
2023-02-07T19:50:09.312Z,75.00
2023-02-07T19:52:42.568Z,74.96
2023-02-07T19:55:14.609Z,75.26
2023-02-07T19:57:45.487Z,75.67
2023-02-07T20:00:19.601Z,75.44
2023-02-07T20:02:52.580Z,75.22
2023-02-07T20:05:23.336Z,75.65
2023-02-07T20:07:55.194Z,75.53
2023-02-07T20:10:26.686Z,75.77
2023-02-07T20:12:58.219Z,75.64
2023-02-07T20:15:28.886Z,75.61
2023-02-07T20:18:00.997Z,75.53
2023-02-07T20:20:32.234Z,75.45
2023-02-07T20:23:04.054Z,75.26
2023-02-07T20:25:39.643Z,75.79
2023-02-07T20:28:10.373Z,75.70
2023-02-07T20:30:47.305Z,75.56
2023-02-07T20:33:19.831Z,75.40
2023-02-07T20:35:51.341Z,75.48
2023-02-07T20:38:21.902Z,75.56
2023-02-07T20:40:52.683Z,76.59
2023-02-07T20:43:24.296Z,76.60
2023-02-07T20:45:58.718Z,75.93
2023-02-07T20:48:29.225Z,75.66
2023-02-07T20:51:02.907Z,75.64
2023-02-07T20:53:33.789Z,75.40
2023-02-07T20:56:11.426Z,75.12
2023-02-07T20:58:43.765Z,74.97
2023-02-07T21:01:20.156Z,74.88
2023-02-07T21:03:53.224Z,74.82
2023-02-07T21:06:24.669Z,74.76
2023-02-07T21:09:02.496Z,74.67
2023-02-07T21:11:42.932Z,74.99
2023-02-07T21:14:29.436Z,75.07
2023-02-07T21:17:05.278Z,74.89
2023-02-07T21:19:37.605Z,75.24
2023-02-07T21:22:08.424Z,75.59
2023-02-07T21:24:42.909Z,75.43
2023-02-07T21:27:14.831Z,75.23
2023-02-07T21:29:45.510Z,75.06
2023-02-07T21:32:16.071Z,75.15
2023-02-07T21:34:48.586Z,75.18
2023-02-07T21:37:21.347Z,75.33
2023-02-07T21:39:54.756Z,75.65
2023-02-07T21:42:25.417Z,75.92
2023-02-07T21:44:57.798Z,75.72
2023-02-07T21:47:30.591Z,75.87
2023-02-07T21:50:04.687Z,75.96
2023-02-07T21:52:36.646Z,76.08
2023-02-07T21:55:11.279Z,76.47
2023-02-07T21:57:43.338Z,76.63
2023-02-07T22:00:15.035Z,76.75
2023-02-07T22:02:47.021Z,76.31
2023-02-07T22:05:17.758Z,76.14
2023-02-07T22:07:48.285Z,76.34
2023-02-07T22:10:20.433Z,76.35
2023-02-07T22:12:51.118Z,76.43
2023-02-07T22:15:23.215Z,76.77
2023-02-07T22:17:54.350Z,77.39
2023-02-07T22:20:27.971Z,78.24
2023-02-07T22:22:58.452Z,78.74
2023-02-07T22:25:30.639Z,79.62
2023-02-07T22:28:02.405Z,79.50
2023-02-07T22:30:35.322Z,79.31
2023-02-07T22:33:07.813Z,78.70
2023-02-07T22:35:40.113Z,77.92
2023-02-07T22:38:13.531Z,77.23
2023-02-07T22:40:45.890Z,77.50
2023-02-07T22:43:18.437Z,77.31
2023-02-07T22:45:49.731Z,77.65
2023-02-07T22:48:20.481Z,78.04
2023-02-07T22:50:53.605Z,77.70
2023-02-07T22:53:24.073Z,77.45
2023-02-07T22:55:54.949Z,77.54
2023-02-07T22:58:26.099Z,77.69
2023-02-07T23:00:57.893Z,77.75
2023-02-07T23:03:28.609Z,77.86
2023-02-07T23:05:59.111Z,77.93
2023-02-07T23:08:29.720Z,78.50
2023-02-07T23:11:00.364Z,79.18
2023-02-07T23:13:30.844Z,79.52
2023-02-07T23:16:02.428Z,80.05
2023-02-07T23:18:33.029Z,80.28
2023-02-07T23:21:03.746Z,80.26
2023-02-07T23:23:34.615Z,80.14
2023-02-07T23:26:07.991Z,80.07
2023-02-07T23:28:38.865Z,80.36
2023-02-07T23:31:13.089Z,80.07
2023-02-07T23:33:44.433Z,79.03
2023-02-07T23:36:17.733Z,78.67
2023-02-07T23:38:49.876Z,78.62
2023-02-07T23:41:21.482Z,78.69
2023-02-07T23:43:51.927Z,79.15
2023-02-07T23:46:22.480Z,78.71
2023-02-07T23:48:53.217Z,78.20
2023-02-07T23:51:23.965Z,78.59
2023-02-07T23:53:55.397Z,78.37
2023-02-07T23:56:26.139Z,78.33
2023-02-07T23:58:56.729Z,79.32
